createdAt,value
2022-12-31T00:01:28.364Z,10.80
2022-12-31T00:03:56.521Z,10.50
2022-12-31T00:06:30.859Z,11.00
2022-12-31T00:09:00.214Z,9.90
2022-12-31T00:11:29.359Z,10.60
2022-12-31T00:13:58.460Z,10.50
2022-12-31T00:16:29.969Z,10.40
2022-12-31T00:18:59.547Z,10.20
2022-12-31T00:21:29.559Z,9.70
2022-12-31T00:23:57.671Z,11.80
2022-12-31T00:26:28.195Z,11.40
2022-12-31T00:28:57.679Z,12.80
2022-12-31T00:31:29.326Z,11.20
2022-12-31T00:33:57.984Z,11.50
2022-12-31T00:36:34.173Z,10.60
2022-12-31T00:39:03.947Z,12.40
2022-12-31T00:41:32.344Z,11.10
2022-12-31T00:44:00.410Z,12.50
2022-12-31T00:46:28.203Z,12.70
2022-12-31T00:48:55.828Z,12.30
2022-12-31T00:51:24.944Z,11.60
2022-12-31T00:53:55.026Z,11.80
2022-12-31T00:56:25.394Z,11.90
2022-12-31T00:58:53.587Z,10.00
2022-12-31T01:01:33.003Z,13.10
2022-12-31T01:04:04.213Z,11.10
2022-12-31T01:06:32.206Z,12.10
2022-12-31T01:09:00.101Z,9.30
2022-12-31T01:11:27.950Z,10.80
2022-12-31T01:14:00.003Z,11.40
2022-12-31T01:16:39.918Z,11.70
2022-12-31T01:19:10.288Z,11.80
2022-12-31T01:21:40.284Z,12.30
2022-12-31T01:24:09.403Z,11.30
2022-12-31T01:26:38.084Z,11.80
2022-12-31T01:29:07.015Z,12.70
2022-12-31T01:31:35.423Z,13.70
2022-12-31T01:34:04.181Z,15.10
2022-12-31T01:36:33.411Z,12.90
2022-12-31T01:39:02.744Z,13.20
2022-12-31T01:41:33.826Z,13.50
2022-12-31T01:44:13.712Z,12.90
2022-12-31T01:46:51.111Z,11.80
2022-12-31T01:49:38.645Z,11.00
2022-12-31T01:52:30.695Z,12.10
2022-12-31T01:55:23.992Z,13.10
2022-12-31T01:57:57.643Z,11.80
2022-12-31T02:00:25.370Z,12.70
2022-12-31T02:02:53.155Z,12.30
2022-12-31T02:05:50.385Z,13.50
2022-12-31T02:08:18.449Z,12.50
2022-12-31T02:10:46.204Z,12.60
2022-12-31T02:13:14.972Z,13.00
2022-12-31T02:16:34.596Z,13.30
2022-12-31T02:19:10.761Z,12.50
2022-12-31T02:22:07.686Z,12.80
2022-12-31T02:24:51.126Z,13.30
2022-12-31T02:27:36.922Z,12.10
2022-12-31T02:30:09.692Z,13.30
2022-12-31T02:32:39.928Z,11.70
2022-12-31T02:35:13.434Z,14.30
2022-12-31T02:37:46.142Z,13.20
2022-12-31T02:40:19.278Z,12.40
2022-12-31T02:42:53.264Z,13.80
2022-12-31T02:45:32.277Z,13.60
2022-12-31T02:47:59.832Z,13.60
2022-12-31T02:50:42.834Z,16.40
2022-12-31T02:53:32.692Z,13.70
2022-12-31T02:56:10.113Z,14.00
2022-12-31T02:58:41.989Z,14.20
2022-12-31T03:01:10.302Z,14.00
2022-12-31T03:03:38.798Z,14.80
2022-12-31T03:06:08.928Z,13.80
2022-12-31T03:08:36.629Z,13.80
2022-12-31T03:11:04.387Z,15.20
2022-12-31T03:13:31.985Z,12.80
2022-12-31T03:15:59.607Z,13.70
2022-12-31T03:18:27.229Z,11.90
2022-12-31T03:20:54.810Z,14.10
2022-12-31T03:23:25.705Z,13.40
2022-12-31T03:25:53.998Z,15.70
2022-12-31T03:28:24.515Z,14.40
2022-12-31T03:30:56.449Z,13.60
2022-12-31T03:33:25.318Z,14.60
2022-12-31T03:35:53.713Z,13.80
2022-12-31T03:38:21.387Z,14.00
2022-12-31T03:40:52.392Z,14.00
2022-12-31T03:43:20.401Z,14.00
2022-12-31T03:45:52.638Z,13.90
2022-12-31T03:48:23.717Z,12.30
2022-12-31T03:50:52.147Z,13.90
2022-12-31T03:53:20.132Z,13.00
2022-12-31T03:55:54.726Z,12.20
2022-12-31T03:58:22.763Z,14.00
2022-12-31T04:00:50.689Z,14.50
2022-12-31T04:03:18.519Z,16.40
2022-12-31T04:05:53.088Z,15.00
2022-12-31T04:08:20.718Z,15.50
2022-12-31T04:10:48.313Z,14.80
2022-12-31T04:13:15.898Z,18.20
2022-12-31T04:15:43.527Z,14.90
2022-12-31T04:18:11.217Z,15.00
2022-12-31T04:20:38.804Z,14.00
2022-12-31T04:23:06.401Z,14.30
2022-12-31T04:25:34.043Z,15.90
2022-12-31T04:28:01.626Z,14.40
2022-12-31T04:30:29.266Z,15.90
2022-12-31T04:32:56.957Z,15.30
2022-12-31T04:35:24.561Z,14.60
2022-12-31T04:37:52.252Z,14.20
2022-12-31T04:40:19.881Z,13.20
2022-12-31T04:42:47.477Z,13.50
2022-12-31T04:45:15.080Z,14.10
2022-12-31T04:47:42.692Z,13.70
2022-12-31T04:50:10.588Z,14.00
2022-12-31T04:52:42.659Z,14.30
2022-12-31T04:55:10.773Z,13.90
2022-12-31T04:57:38.756Z,13.30
2022-12-31T05:00:07.265Z,13.60
2022-12-31T05:02:35.123Z,14.10
2022-12-31T05:05:03.059Z,13.40
2022-12-31T05:07:30.661Z,14.80
2022-12-31T05:09:58.279Z,14.30
2022-12-31T05:12:25.891Z,13.60
2022-12-31T05:14:53.539Z,13.70
2022-12-31T05:17:21.266Z,14.00
2022-12-31T05:19:48.988Z,13.30
2022-12-31T05:22:16.649Z,13.80
2022-12-31T05:24:44.255Z,14.00
2022-12-31T05:27:11.861Z,13.80
2022-12-31T05:29:39.508Z,12.10
2022-12-31T05:32:07.086Z,13.10
2022-12-31T05:34:34.655Z,13.60
2022-12-31T05:37:02.351Z,14.40
2022-12-31T05:39:29.947Z,12.50
2022-12-31T05:41:57.611Z,14.20
2022-12-31T05:44:25.179Z,13.40
2022-12-31T05:46:52.876Z,14.20
2022-12-31T05:49:20.630Z,12.60
2022-12-31T05:51:48.230Z,13.80
2022-12-31T05:54:15.838Z,12.70
2022-12-31T05:56:43.533Z,14.00
2022-12-31T05:59:11.366Z,13.20
2022-12-31T06:01:39.056Z,13.30
2022-12-31T06:04:06.735Z,14.20
2022-12-31T06:06:34.453Z,18.70
2022-12-31T06:09:02.076Z,16.10
2022-12-31T06:11:29.698Z,16.10
2022-12-31T06:13:57.343Z,14.80
2022-12-31T06:16:25.119Z,14.80
2022-12-31T06:18:52.980Z,17.00
2022-12-31T06:21:22.163Z,36.60
2022-12-31T06:23:49.860Z,30.20
2022-12-31T06:26:17.449Z,19.70
2022-12-31T06:28:45.120Z,14.00
2022-12-31T06:31:14.785Z,13.60
2022-12-31T06:33:42.912Z,14.90
2022-12-31T06:36:13.741Z,13.70
2022-12-31T06:38:43.076Z,14.00
2022-12-31T06:41:13.388Z,12.80
2022-12-31T06:43:42.010Z,12.00
2022-12-31T06:46:15.643Z,13.90
2022-12-31T06:48:44.149Z,13.10
2022-12-31T06:51:17.244Z,13.10
2022-12-31T06:53:46.996Z,13.50
2022-12-31T06:56:16.221Z,13.60
2022-12-31T06:58:44.594Z,13.90
2022-12-31T07:01:37.051Z,13.70
2022-12-31T07:04:26.493Z,12.90
2022-12-31T07:06:59.394Z,13.40
2022-12-31T07:09:35.761Z,12.60
2022-12-31T07:12:19.751Z,13.70
2022-12-31T07:14:54.576Z,13.60
2022-12-31T07:17:28.413Z,14.10
2022-12-31T07:20:11.006Z,11.80
2022-12-31T07:22:39.140Z,13.60
2022-12-31T07:25:07.498Z,14.40
2022-12-31T07:27:53.314Z,13.40
2022-12-31T07:30:22.734Z,16.10
2022-12-31T07:33:26.263Z,14.40
2022-12-31T07:36:00.552Z,17.90
2022-12-31T07:38:48.685Z,15.10
2022-12-31T07:41:39.174Z,15.90
2022-12-31T07:44:45.450Z,15.70
2022-12-31T07:47:22.338Z,13.30
2022-12-31T07:49:50.426Z,13.40
2022-12-31T07:52:18.939Z,14.20
2022-12-31T07:54:46.655Z,14.80
2022-12-31T07:57:16.711Z,14.20
2022-12-31T07:59:47.196Z,13.10
2022-12-31T08:02:50.388Z,13.90
2022-12-31T08:05:31.944Z,12.10
2022-12-31T08:08:07.445Z,12.50
2022-12-31T08:11:00.308Z,12.40
2022-12-31T08:13:28.077Z,14.00
2022-12-31T08:15:55.948Z,12.40
2022-12-31T08:18:23.777Z,14.00
2022-12-31T08:20:57.495Z,12.10
2022-12-31T08:23:31.883Z,12.90
2022-12-31T08:26:36.539Z,12.50
2022-12-31T08:29:17.813Z,10.90
2022-12-31T08:31:48.164Z,12.90
2022-12-31T08:34:39.079Z,12.40
2022-12-31T08:37:13.468Z,13.40
2022-12-31T08:40:05.629Z,14.60
2022-12-31T08:42:51.625Z,12.50
2022-12-31T08:45:28.418Z,13.60
2022-12-31T08:48:22.364Z,14.20
2022-12-31T08:50:50.294Z,13.50
2022-12-31T08:53:18.280Z,13.60
2022-12-31T08:55:49.724Z,11.90
2022-12-31T08:58:39.032Z,16.30
2022-12-31T09:01:08.032Z,16.00
2022-12-31T09:04:11.515Z,13.90
2022-12-31T09:06:56.425Z,13.10
2022-12-31T09:09:24.000Z,15.60
2022-12-31T09:12:06.395Z,15.80
2022-12-31T09:14:49.032Z,16.50
2022-12-31T09:17:34.738Z,16.20
2022-12-31T09:20:02.969Z,16.80
2022-12-31T09:22:30.831Z,16.40
2022-12-31T09:24:59.015Z,14.20
2022-12-31T09:27:55.398Z,17.00
2022-12-31T09:30:23.420Z,17.20
2022-12-31T09:33:12.616Z,18.30
2022-12-31T09:36:07.950Z,18.00
2022-12-31T09:38:48.828Z,17.70
2022-12-31T09:41:37.717Z,18.60
2022-12-31T09:44:48.302Z,18.20
2022-12-31T09:47:18.885Z,17.70
2022-12-31T09:49:49.469Z,18.20
2022-12-31T09:52:42.353Z,17.90
2022-12-31T09:55:28.098Z,18.30
2022-12-31T09:58:05.711Z,19.20
2022-12-31T10:00:50.332Z,18.20
2022-12-31T10:03:18.125Z,17.60
2022-12-31T10:06:17.946Z,19.20
2022-12-31T10:08:54.395Z,17.00
2022-12-31T10:11:57.722Z,17.30
2022-12-31T10:14:57.472Z,14.30
2022-12-31T10:17:28.067Z,15.50
2022-12-31T10:20:23.684Z,16.10
2022-12-31T10:23:25.670Z,16.80
2022-12-31T10:26:19.344Z,16.20
2022-12-31T10:28:59.712Z,16.80
2022-12-31T10:31:30.434Z,16.10
2022-12-31T10:34:24.065Z,12.50
2022-12-31T10:37:01.882Z,18.30
2022-12-31T10:39:40.703Z,17.80
2022-12-31T10:42:26.719Z,18.70
2022-12-31T10:45:22.150Z,19.00
2022-12-31T10:48:15.971Z,17.70
2022-12-31T10:51:07.904Z,16.20
2022-12-31T10:56:21.329Z,16.90
2022-12-31T10:59:23.044Z,16.80
2022-12-31T11:02:01.433Z,17.90
2022-12-31T11:04:57.261Z,15.20
2022-12-31T11:07:43.417Z,14.60
2022-12-31T11:10:30.025Z,15.60
2022-12-31T11:13:35.327Z,16.50
2022-12-31T11:16:23.293Z,17.00
2022-12-31T11:19:15.049Z,14.90
2022-12-31T11:22:01.171Z,14.60
2022-12-31T11:24:40.917Z,17.70
2022-12-31T11:27:14.379Z,16.00
2022-12-31T11:30:03.307Z,16.10
2022-12-31T11:32:47.005Z,15.00
2022-12-31T11:35:33.377Z,14.80
2022-12-31T11:38:13.509Z,15.20
2022-12-31T11:40:43.955Z,16.30
2022-12-31T11:43:22.663Z,15.90
2022-12-31T11:46:16.229Z,16.40
2022-12-31T11:49:04.997Z,15.60
2022-12-31T11:52:02.283Z,14.70
2022-12-31T11:55:17.086Z,16.20
2022-12-31T11:57:50.062Z,16.10
2022-12-31T12:00:22.419Z,16.20
2022-12-31T12:02:53.795Z,18.80
2022-12-31T12:05:26.453Z,16.80
2022-12-31T12:07:54.584Z,14.60
2022-12-31T12:10:35.991Z,18.50
2022-12-31T12:13:31.065Z,18.70
2022-12-31T12:16:01.662Z,15.20
2022-12-31T12:18:29.240Z,18.20
2022-12-31T12:21:08.295Z,18.60
2022-12-31T12:23:36.140Z,18.30
2022-12-31T12:26:03.912Z,18.40
2022-12-31T12:28:44.444Z,17.50
2022-12-31T12:31:22.404Z,17.90
2022-12-31T12:33:51.428Z,17.20
2022-12-31T12:36:20.870Z,18.50
2022-12-31T12:38:48.766Z,17.50
2022-12-31T12:41:22.753Z,18.40
2022-12-31T12:44:01.418Z,17.10
2022-12-31T12:46:47.804Z,17.70
2022-12-31T12:49:39.423Z,18.00
2022-12-31T12:52:16.117Z,17.80
2022-12-31T12:55:05.484Z,16.10
2022-12-31T12:57:41.944Z,17.10
2022-12-31T13:00:32.939Z,17.00
2022-12-31T13:03:06.374Z,16.40
2022-12-31T13:05:58.397Z,16.40
2022-12-31T13:08:58.394Z,16.00
2022-12-31T13:11:40.679Z,15.70
2022-12-31T13:14:31.261Z,14.50
2022-12-31T13:17:22.319Z,15.60
2022-12-31T13:19:55.745Z,16.70
2022-12-31T13:22:29.735Z,15.50
2022-12-31T13:25:15.685Z,17.50
2022-12-31T13:27:49.661Z,15.90
2022-12-31T13:30:20.838Z,16.10
2022-12-31T13:32:55.580Z,17.20
2022-12-31T13:35:28.440Z,15.80
2022-12-31T13:38:14.823Z,16.10
2022-12-31T13:40:56.952Z,16.10
2022-12-31T13:43:50.653Z,16.50
2022-12-31T13:46:30.518Z,18.90
2022-12-31T13:49:05.286Z,17.30
2022-12-31T13:51:41.932Z,15.10
2022-12-31T13:54:43.767Z,17.50
2022-12-31T13:57:40.556Z,16.50
2022-12-31T14:00:35.396Z,16.50
2022-12-31T14:03:21.601Z,16.90
2022-12-31T14:05:49.181Z,17.70
2022-12-31T14:08:16.908Z,18.20
2022-12-31T14:10:50.660Z,18.30
2022-12-31T14:13:34.163Z,15.50
2022-12-31T14:16:05.346Z,18.90
2022-12-31T14:18:41.498Z,24.40
2022-12-31T14:21:22.030Z,22.20
2022-12-31T14:24:04.971Z,22.30
2022-12-31T14:26:32.613Z,26.10
2022-12-31T14:29:12.386Z,18.60
2022-12-31T14:31:49.331Z,19.70
2022-12-31T14:34:36.054Z,17.30
2022-12-31T14:37:09.694Z,19.70
2022-12-31T14:39:54.286Z,21.30
2022-12-31T14:42:45.776Z,24.20
2022-12-31T14:45:46.083Z,22.10
2022-12-31T14:48:44.303Z,21.10
2022-12-31T14:51:12.901Z,22.40
2022-12-31T14:53:51.900Z,21.10
2022-12-31T14:56:45.073Z,22.90
2022-12-31T14:59:29.806Z,20.90
2022-12-31T15:01:58.345Z,20.80
2022-12-31T15:04:42.524Z,20.80
2022-12-31T15:07:21.090Z,21.40
2022-12-31T15:10:14.656Z,22.50
2022-12-31T15:12:46.220Z,22.40
2022-12-31T15:18:35.928Z,21.00
2022-12-31T15:21:31.474Z,20.90
2022-12-31T15:23:59.235Z,22.10
2022-12-31T15:26:31.055Z,28.20
2022-12-31T15:29:02.630Z,23.50
2022-12-31T15:34:03.694Z,23.70
2022-12-31T15:36:51.263Z,31.80
2022-12-31T15:39:30.733Z,38.50
2022-12-31T15:44:59.130Z,33.80
2022-12-31T15:47:35.305Z,33.50
2022-12-31T15:50:14.811Z,33.60
2022-12-31T15:52:46.167Z,26.90
2022-12-31T15:55:27.916Z,29.30
2022-12-31T15:58:00.689Z,28.80
2022-12-31T16:00:43.355Z,28.10
2022-12-31T16:03:22.479Z,32.10
2022-12-31T16:05:51.305Z,35.60
2022-12-31T16:08:30.855Z,29.30
2022-12-31T16:10:59.283Z,25.80
2022-12-31T16:13:29.083Z,28.00
2022-12-31T16:16:04.032Z,37.20
2022-12-31T16:18:43.053Z,26.60
2022-12-31T16:21:37.813Z,24.00
2022-12-31T16:24:23.057Z,27.90
2022-12-31T16:26:55.102Z,27.20
2022-12-31T16:29:23.988Z,25.70
2022-12-31T16:31:53.584Z,29.40
2022-12-31T16:34:27.117Z,27.40
2022-12-31T16:37:00.126Z,28.00
2022-12-31T16:39:27.657Z,28.00
2022-12-31T16:42:13.741Z,26.30
2022-12-31T16:44:41.773Z,26.10
2022-12-31T16:47:18.809Z,26.60
2022-12-31T16:49:49.989Z,22.90
2022-12-31T16:52:39.616Z,23.30
2022-12-31T16:55:16.831Z,23.60
2022-12-31T16:57:49.384Z,24.80
2022-12-31T17:00:27.526Z,26.90
2022-12-31T17:03:31.221Z,26.90
2022-12-31T17:06:08.264Z,27.00
2022-12-31T17:08:54.474Z,28.70
2022-12-31T17:11:30.909Z,26.10
2022-12-31T17:14:07.499Z,22.40
2022-12-31T17:16:38.271Z,25.80
2022-12-31T17:19:06.209Z,24.10
2022-12-31T17:21:34.202Z,24.10
2022-12-31T17:24:05.752Z,25.50
2022-12-31T17:29:05.603Z,22.50
2022-12-31T17:31:39.060Z,23.90
2022-12-31T17:34:12.952Z,26.00
2022-12-31T17:36:52.220Z,26.00
2022-12-31T17:39:23.476Z,24.40
2022-12-31T17:41:55.385Z,28.60
2022-12-31T17:44:28.527Z,25.40
2022-12-31T17:46:56.347Z,24.00
2022-12-31T17:49:30.303Z,25.80
2022-12-31T17:51:58.020Z,25.00
2022-12-31T17:54:25.634Z,26.80
2022-12-31T17:56:53.898Z,26.80
2022-12-31T17:59:24.459Z,27.20
2022-12-31T18:01:52.274Z,27.90
2022-12-31T18:04:20.075Z,26.80
2022-12-31T18:06:49.393Z,26.40
2022-12-31T18:09:17.198Z,27.30
2022-12-31T18:11:45.378Z,27.00
2022-12-31T18:14:16.310Z,26.70
2022-12-31T18:16:44.007Z,29.00
2022-12-31T18:19:37.799Z,27.20
2022-12-31T18:22:03.246Z,27.40
2022-12-31T18:24:30.966Z,26.40
2022-12-31T18:26:58.674Z,27.50
2022-12-31T18:29:26.368Z,25.90
2022-12-31T18:31:54.199Z,27.90
2022-12-31T18:34:21.877Z,28.10
2022-12-31T18:36:49.918Z,29.20
2022-12-31T18:39:17.789Z,29.00
2022-12-31T18:41:48.033Z,27.90
2022-12-31T18:44:16.456Z,28.70
2022-12-31T18:46:44.301Z,30.40
2022-12-31T18:49:12.019Z,27.20
2022-12-31T18:51:39.655Z,28.60
2022-12-31T18:54:11.492Z,31.10
2022-12-31T18:56:44.810Z,33.00
2022-12-31T18:59:14.757Z,34.90
2022-12-31T19:01:42.477Z,32.50
2022-12-31T19:04:16.941Z,34.00
2022-12-31T19:06:48.828Z,34.30
2022-12-31T19:09:43.558Z,33.50
2022-12-31T19:12:04.677Z,33.70
2022-12-31T19:14:32.243Z,34.20
2022-12-31T19:19:26.383Z,35.20
2022-12-31T19:21:54.089Z,36.50
2022-12-31T19:24:24.020Z,50.50
2022-12-31T19:26:52.359Z,34.50
2022-12-31T19:29:22.934Z,43.40
2022-12-31T19:31:50.816Z,42.90
2022-12-31T19:34:18.520Z,40.20
2022-12-31T19:36:46.132Z,40.90
2022-12-31T19:39:16.887Z,37.50
2022-12-31T19:41:45.271Z,38.10
2022-12-31T19:44:17.468Z,40.40
2022-12-31T19:46:45.956Z,38.10
2022-12-31T19:49:14.329Z,36.40
2022-12-31T19:51:42.181Z,34.70
2022-12-31T19:54:13.270Z,37.90
2022-12-31T19:56:43.718Z,38.80
2022-12-31T19:59:11.827Z,37.30
2022-12-31T20:01:39.582Z,37.60
2022-12-31T20:04:07.339Z,44.60
2022-12-31T20:06:35.058Z,45.60
2022-12-31T20:09:03.555Z,42.10
2022-12-31T20:11:31.196Z,43.90
2022-12-31T20:13:58.964Z,39.80
2022-12-31T20:16:29.415Z,63.20
2022-12-31T20:18:57.419Z,50.30
2022-12-31T20:21:27.939Z,48.70
2022-12-31T20:23:55.794Z,46.60
2022-12-31T20:26:25.007Z,62.40
2022-12-31T20:28:53.487Z,59.50
2022-12-31T20:31:24.944Z,57.30
2022-12-31T20:33:54.045Z,59.10
2022-12-31T20:36:22.611Z,60.90
2022-12-31T20:38:50.467Z,58.20
2022-12-31T20:41:21.322Z,58.60
2022-12-31T20:43:49.325Z,57.70
2022-12-31T20:46:22.518Z,55.70
2022-12-31T20:48:52.359Z,49.10
2022-12-31T20:51:21.327Z,49.50
2022-12-31T20:53:51.671Z,54.90
2022-12-31T20:56:19.384Z,50.70
2022-12-31T20:58:47.714Z,51.00
2022-12-31T21:01:17.347Z,47.90
2022-12-31T21:06:35.552Z,47.40
2022-12-31T21:09:06.179Z,47.00
2022-12-31T21:11:34.618Z,44.40
2022-12-31T21:14:02.628Z,38.10
2022-12-31T21:16:30.429Z,36.90
2022-12-31T21:18:58.080Z,37.90
2022-12-31T21:21:25.834Z,37.00
2022-12-31T21:23:53.418Z,37.00
2022-12-31T21:26:21.105Z,37.10
2022-12-31T21:28:48.760Z,34.90
2022-12-31T21:31:16.432Z,35.70
2022-12-31T21:33:45.462Z,35.30
2022-12-31T21:36:13.693Z,37.20
2022-12-31T21:38:41.595Z,34.60
2022-12-31T21:41:10.100Z,34.40
2022-12-31T21:43:37.751Z,30.10
2022-12-31T21:46:07.239Z,31.20
2022-12-31T21:48:34.914Z,33.10
2022-12-31T21:51:13.008Z,34.40
2022-12-31T21:53:40.705Z,33.00
2022-12-31T21:56:09.438Z,32.20
2022-12-31T21:58:39.368Z,31.30
2022-12-31T22:01:07.838Z,31.90
2022-12-31T22:03:36.067Z,33.90
2022-12-31T22:06:06.596Z,34.00
2022-12-31T22:08:34.179Z,35.60
2022-12-31T22:11:02.166Z,35.40
2022-12-31T22:13:29.914Z,34.30
2022-12-31T22:16:04.288Z,35.90
2022-12-31T22:18:35.824Z,34.80
2022-12-31T22:21:17.834Z,38.00
2022-12-31T22:23:51.474Z,37.70
2022-12-31T22:26:22.186Z,35.70
2022-12-31T22:28:50.446Z,38.70
2022-12-31T22:31:21.043Z,39.10
2022-12-31T22:33:49.008Z,39.30
2022-12-31T22:36:18.978Z,35.10
2022-12-31T22:38:47.208Z,36.70
2022-12-31T22:41:18.235Z,34.60
2022-12-31T22:43:49.460Z,39.40
2022-12-31T22:46:21.814Z,37.10
2022-12-31T22:48:51.190Z,37.20
2022-12-31T22:51:19.917Z,34.80
2022-12-31T22:53:47.937Z,42.10
2022-12-31T22:56:17.839Z,44.50
2022-12-31T22:58:46.335Z,46.00
2022-12-31T23:01:20.094Z,48.30
2022-12-31T23:03:49.687Z,51.80
2022-12-31T23:06:18.899Z,55.60
2022-12-31T23:08:46.707Z,57.00
2022-12-31T23:11:14.416Z,62.00
2022-12-31T23:13:49.465Z,59.30
2022-12-31T23:16:19.005Z,60.00
2022-12-31T23:18:46.611Z,59.10
2022-12-31T23:21:15.787Z,72.70
2022-12-31T23:23:43.392Z,70.90
2022-12-31T23:26:10.974Z,70.10
2022-12-31T23:28:38.578Z,76.60
2022-12-31T23:31:06.671Z,105.90
2022-12-31T23:33:34.378Z,107.20
2022-12-31T23:36:06.456Z,96.30
2022-12-31T23:38:34.364Z,87.70
2022-12-31T23:41:12.069Z,91.90
2022-12-31T23:43:39.713Z,76.00
2022-12-31T23:46:07.322Z,83.10
2022-12-31T23:48:34.989Z,71.90
2022-12-31T23:51:02.664Z,76.10
2022-12-31T23:53:30.302Z,68.30
2022-12-31T23:56:23.382Z,72.90
2022-12-31T23:58:55.933Z,69.30
